Time;durP1;ratioP1;P1;durP2;ratioP2;P2;SDS_P1;SDS_P2;PMS_P1;PMS_P2;Temp;Humidity;BMP_temperature;BMP_pressure;BME280_temperature;BME280_humidity;BME280_pressure;Samples;Min_cycle;Max_cycle;Signal;HPM_P1;HPM_P2
2022/04/04 00:00:47;;;;;;;5.43;4.87;;;;;;;2.88;77.22;100470.69;5082636;28;20492;-69
2022/04/04 00:03:15;;;;;;;5.10;4.40;;;;;;;2.78;77.41;100473.03;5076331;28;20452;-69
2022/04/04 00:05:42;;;;;;;8.37;4.37;;;;;;;2.71;77.60;100462.88;5070242;28;20471;-69
2022/04/04 00:08:09;;;;;;;4.77;4.10;;;;;;;2.72;77.75;100462.78;5083540;28;20521;-69
2022/04/04 00:10:36;;;;;;;6.33;4.73;;;;;;;2.69;78.05;100455.06;5082781;28;20479;-69
2022/04/04 00:13:03;;;;;;;5.33;4.80;;;;;;;2.59;78.12;100462.63;5083392;28;20980;-68
2022/04/04 00:15:29;;;;;;;6.10;4.90;;;;;;;2.63;78.14;100447.47;5083078;28;20517;-68
2022/04/04 00:17:56;;;;;;;6.20;5.40;;;;;;;2.62;78.22;100438.72;5082860;28;20479;-68
2022/04/04 00:20:25;;;;;;;6.43;4.87;;;;;;;2.66;78.01;100447.31;5081569;28;20487;-68
2022/04/04 00:22:51;;;;;;;7.60;5.93;;;;;;;2.62;78.18;100433.44;5083716;28;20439;-69
2022/04/04 00:25:18;;;;;;;4.97;4.53;;;;;;;2.60;78.19;100427.38;5077223;28;20465;-68
2022/04/04 00:27:45;;;;;;;5.90;5.07;;;;;;;2.56;78.37;100430.28;5068184;28;20454;-68
2022/04/04 00:30:12;;;;;;;6.30;5.70;;;;;;;2.54;78.54;100438.28;5082011;28;20472;-68
2022/04/04 00:32:39;;;;;;;7.13;4.13;;;;;;;2.58;78.35;100428.38;5078630;28;20444;-68
2022/04/04 00:35:06;;;;;;;5.93;5.33;;;;;;;2.47;78.36;100431.63;5082304;28;20455;-68
2022/04/04 00:37:37;;;;;;;10.23;5.60;;;;;;;2.50;78.54;100428.84;5076419;28;20468;-67
2022/04/04 00:40:04;;;;;;;6.50;5.80;;;;;;;2.43;78.44;100422.16;5082796;28;20481;-70
2022/04/04 00:42:31;;;;;;;6.20;5.50;;;;;;;2.39;78.59;100420.63;5081312;28;20487;-68
2022/04/04 00:44:58;;;;;;;6.97;5.20;;;;;;;2.36;78.85;100421.66;5081723;28;20472;-69
2022/04/04 00:47:25;;;;;;;6.30;5.67;;;;;;;2.41;78.53;100416.13;5082044;28;20485;-69
2022/04/04 00:49:51;;;;;;;13.10;7.00;;;;;;;2.43;78.70;100411.59;5081634;28;20460;-69
2022/04/04 00:52:18;;;;;;;6.70;5.87;;;;;;;2.42;78.46;100408.13;5081818;28;20514;-69
2022/04/04 00:54:47;;;;;;;6.50;5.90;;;;;;;2.41;78.35;100409.09;5082487;28;20433;-69
2022/04/04 00:57:14;;;;;;;6.83;6.17;;;;;;;2.41;78.36;100400.28;5081567;28;20482;-69
2022/04/04 00:59:41;;;;;;;9.10;7.27;;;;;;;2.32;78.79;100401.66;5082473;28;20549;-70
2022/04/04 01:02:08;;;;;;;7.20;6.50;;;;;;;2.36;78.51;100397.94;5081365;28;20491;-69
2022/04/04 01:04:34;;;;;;;8.20;6.93;;;;;;;2.38;78.58;100397.84;5078175;28;20453;-69
2022/04/04 01:07:01;;;;;;;8.10;7.10;;;;;;;2.37;78.40;100396.97;5068653;28;20790;-69
2022/04/04 01:09:28;;;;;;;13.03;8.70;;;;;;;2.28;78.70;100394.84;5078573;28;20460;-70
2022/04/04 01:12:07;;;;;;;8.00;7.20;;;;;;;2.30;78.69;100390.34;5061881;28;20473;-67
2022/04/04 01:14:35;;;;;;;9.40;7.27;;;;;;;2.36;78.58;100391.78;5062396;28;20452;-68
2022/04/04 01:17:02;;;;;;;11.13;7.83;;;;;;;2.21;78.81;100391.69;5081045;28;20511;-69
2022/04/04 01:19:29;;;;;;;8.90;7.73;;;;;;;2.29;78.69;100390.41;5081271;28;20510;-68
2022/04/04 01:21:56;;;;;;;12.80;11.00;;;;;;;2.16;79.20;100384.97;5080598;28;20860;-69
2022/04/04 01:24:24;;;;;;;11.03;9.37;;;;;;;2.28;79.11;100386.94;5082060;28;20443;-68
2022/04/04 01:26:52;;;;;;;10.80;9.70;;;;;;;2.29;78.92;100379.84;5081348;28;20575;-67
2022/04/04 01:29:20;;;;;;;9.73;8.73;;;;;;;2.28;79.01;100383.47;5080394;28;20483;-68
2022/04/04 01:31:47;;;;;;;10.73;9.63;;;;;;;2.17;79.12;100371.69;5080781;28;20476;-67
2022/04/04 01:34:14;;;;;;;11.90;10.57;;;;;;;2.22;79.15;100364.38;5064160;28;21009;-67
2022/04/04 01:36:40;;;;;;;11.60;9.90;;;;;;;2.21;79.34;100364.47;5068682;28;20506;-67
2022/04/04 01:39:07;;;;;;;11.30;9.20;;;;;;;2.30;79.34;100347.28;5081388;28;20487;-67
2022/04/04 01:41:35;;;;;;;16.33;11.17;;;;;;;2.19;79.41;100351.34;5080734;28;20513;-66
2022/04/04 01:44:02;;;;;;;12.97;11.47;;;;;;;2.22;79.31;100347.69;5081190;28;20503;-67
2022/04/04 01:46:29;;;;;;;13.67;10.17;;;;;;;2.27;79.05;100350.94;5080473;28;20460;-67
2022/04/04 01:48:58;;;;;;;12.70;11.40;;;;;;;2.19;79.45;100345.25;5079770;28;20440;-66
2022/04/04 01:51:26;;;;;;;13.27;11.13;;;;;;;2.16;79.45;100340.97;5080581;28;20486;-66
2022/04/04 01:53:53;;;;;;;12.00;10.67;;;;;;;2.18;79.45;100338.25;5080563;28;20531;-68
2022/04/04 01:56:20;;;;;;;11.03;9.83;;;;;;;2.20;79.61;100336.38;5080117;28;20476;-67
2022/04/04 01:58:48;;;;;;;14.50;11.67;;;;;;;2.07;79.83;100325.66;5080944;28;20455;-68
2022/04/04 02:01:17;;;;;;;15.90;12.50;;;;;;;2.05;79.71;100328.38;5080641;28;20480;-67
2022/04/04 02:03:47;;;;;;;14.37;11.60;;;;;;;2.15;79.38;100314.69;5065755;28;20465;-67
2022/04/04 02:06:14;;;;;;;17.60;11.90;;;;;;;2.12;79.54;100314.84;5070164;28;20482;-67
2022/04/04 02:08:41;;;;;;;14.23;11.20;;;;;;;2.09;79.85;100307.97;5080518;28;20447;-67
2022/04/04 02:11:08;;;;;;;12.63;10.53;;;;;;;2.03;80.04;100305.66;5080230;28;20567;-68
2022/04/04 02:13:35;;;;;;;12.27;10.97;;;;;;;2.13;79.75;100304.22;5048919;28;20440;-68
2022/04/04 02:16:04;;;;;;;12.67;10.83;;;;;;;2.13;79.59;100298.94;5079821;28;20601;-67
2022/04/04 02:18:32;;;;;;;13.87;10.70;;;;;;;2.21;79.33;100291.44;5080630;28;20452;-67
2022/04/04 02:20:59;;;;;;;17.63;11.03;;;;;;;2.09;79.55;100292.16;5078770;28;20479;-67
2022/04/04 02:23:26;;;;;;;13.80;10.20;;;;;;;2.16;79.78;100282.09;5080205;28;20440;-67
2022/04/04 02:25:55;;;;;;;19.60;11.87;;;;;;;2.21;79.34;100274.78;5079353;28;20467;-67
2022/04/04 02:28:22;;;;;;;12.90;10.00;;;;;;;2.19;79.53;100280.16;5079988;28;20455;-67
2022/04/04 02:30:50;;;;;;;14.27;11.00;;;;;;;2.20;79.47;100266.00;5078925;28;20467;-67
2022/04/04 02:33:19;;;;;;;13.67;11.20;;;;;;;2.23;79.20;100257.06;5072271;28;20467;-67
2022/04/04 02:35:47;;;;;;;15.23;10.50;;;;;;;2.10;79.68;100256.94;5079424;28;20517;-68
2022/04/04 02:38:13;;;;;;;17.20;11.50;;;;;;;2.12;79.51;100259.47;5079757;28;20444;-67
2022/04/04 02:40:41;;;;;;;13.23;11.83;;;;;;;2.20;79.49;100250.16;5074002;28;20496;-67
2022/04/04 02:43:08;;;;;;;15.90;11.80;;;;;;;2.18;79.34;100244.13;5074364;28;20490;-67
2022/04/04 02:45:36;;;;;;;15.67;11.97;;;;;;;2.13;79.23;100240.06;5079412;28;20479;-67
2022/04/04 02:48:03;;;;;;;16.00;12.30;;;;;;;2.19;79.28;100247.66;5080345;28;20448;-67
2022/04/04 02:50:31;;;;;;;15.40;12.50;;;;;;;2.12;79.59;100231.31;5078332;28;20463;-67
2022/04/04 02:52:59;;;;;;;14.27;12.73;;;;;;;2.19;79.40;100232.66;5080428;28;20497;-67
2022/04/04 02:58:10;;;;;;;17.83;12.70;;;;;;;2.15;79.17;100219.72;5079680;28;20453;-67
2022/04/04 03:00:37;;;;;;;13.87;11.53;;;;;;;2.11;79.68;100213.78;5079248;28;20839;-67
2022/04/04 03:03:04;;;;;;;13.07;11.67;;;;;;;2.09;79.32;100207.75;5071425;28;20448;-67
2022/04/04 03:05:32;;;;;;;13.30;11.90;;;;;;;2.20;79.07;100209.78;5078227;28;20456;-67
2022/04/04 03:07:59;;;;;;;14.10;11.70;;;;;;;2.11;79.45;100197.13;5079902;28;20458;-67
2022/04/04 03:10:26;;;;;;;14.30;10.40;;;;;;;2.07;79.57;100196.44;5079322;28;21053;-68
2022/04/04 03:12:53;;;;;;;13.73;12.30;;;;;;;2.09;79.64;100194.56;5079459;28;20440;-67
2022/04/04 03:15:22;;;;;;;12.77;10.80;;;;;;;2.03;79.66;100187.00;5079486;28;20451;-68
2022/04/04 03:17:51;;;;;;;12.10;10.20;;;;;;;2.13;79.53;100182.06;5079444;28;20456;-67
2022/04/04 03:20:19;;;;;;;14.33;11.77;;;;;;;2.12;79.58;100183.84;5077948;28;20452;-68
2022/04/04 03:22:49;;;;;;;17.70;13.20;;;;;;;1.97;80.03;100176.81;5079975;28;20472;-67
2022/04/04 03:25:17;;;;;;;13.13;11.47;;;;;;;2.00;79.95;100168.72;5060605;28;20457;-67
2022/04/04 03:27:44;;;;;;;12.50;10.47;;;;;;;2.05;79.91;100170.16;5079440;28;20447;-67
2022/04/04 03:30:15;;;;;;;14.33;10.90;;;;;;;1.94;79.91;100162.00;5079111;28;20483;-67
2022/04/04 03:32:42;;;;;;;11.73;10.33;;;;;;;2.05;79.75;100164.88;5077957;28;20934;-67
2022/04/04 03:35:09;;;;;;;15.93;11.30;;;;;;;2.05;79.66;100159.63;5079178;28;20462;-67
2022/04/04 03:37:37;;;;;;;14.10;12.43;;;;;;;2.05;79.74;100145.59;5079410;28;20452;-67
2022/04/04 03:40:06;;;;;;;14.53;10.43;;;;;;;2.11;79.73;100157.56;5079633;28;20542;-67
2022/04/04 03:42:34;;;;;;;13.33;11.20;;;;;;;2.01;79.69;100141.41;5079264;28;20494;-68
2022/04/04 03:45:02;;;;;;;14.13;10.90;;;;;;;2.01;79.76;100138.78;5079478;28;20504;-68
2022/04/04 03:47:29;;;;;;;11.90;10.63;;;;;;;2.03;79.60;100128.97;5078161;28;21022;-68
2022/04/04 03:49:56;;;;;;;14.97;11.73;;;;;;;2.06;79.77;100134.91;5059972;28;20453;-67
2022/04/04 03:52:22;;;;;;;12.93;10.10;;;;;;;2.03;79.75;100126.34;5072870;28;20865;-67
2022/04/04 03:54:49;;;;;;;13.30;10.53;;;;;;;2.14;79.36;100118.66;5080376;28;20480;-68
2022/04/04 03:57:17;;;;;;;16.60;11.77;;;;;;;2.26;79.09;100125.03;5078351;28;20486;-67
2022/04/04 03:59:44;;;;;;;14.37;11.37;;;;;;;2.12;79.33;100117.03;5079068;28;20452;-67
2022/04/04 04:02:11;;;;;;;14.70;11.53;;;;;;;2.13;79.53;100105.56;5078638;28;21012;-68
2022/04/04 04:04:38;;;;;;;14.57;11.10;;;;;;;2.06;79.53;100102.44;5046289;28;20974;-67
2022/04/04 04:07:05;;;;;;;13.63;11.67;;;;;;;2.03;79.45;100089.44;5078227;28;20481;-68
2022/04/04 04:09:32;;;;;;;15.27;11.70;;;;;;;2.04;79.42;100086.72;5072793;28;20483;-68
2022/04/04 04:11:59;;;;;;;14.53;12.90;;;;;;;2.12;79.04;100088.91;5069126;28;20479;-68
2022/04/04 04:14:27;;;;;;;14.80;11.87;;;;;;;2.11;78.96;100079.28;5079312;28;20661;-68
2022/04/04 04:16:54;;;;;;;21.23;13.23;;;;;;;2.12;78.85;100074.84;5064220;28;20469;-67
2022/04/04 04:22:05;;;;;;;17.07;12.53;;;;;;;2.20;78.28;100062.06;5078553;28;20479;-67
2022/04/04 04:24:32;;;;;;;19.00;13.13;;;;;;;2.27;77.86;100055.47;5080180;28;20659;-67
2022/04/04 04:26:59;;;;;;;16.73;13.37;;;;;;;2.28;77.79;100053.72;5082516;28;20478;-68
2022/04/04 04:29:27;;;;;;;16.90;14.30;;;;;;;2.30;77.43;100049.19;5082229;28;20739;-68
2022/04/04 04:31:54;;;;;;;14.40;11.70;;;;;;;2.21;77.13;100043.50;5080907;28;20478;-67
2022/04/04 04:34:21;;;;;;;15.60;12.53;;;;;;;2.40;76.85;100045.88;5062538;28;20461;-67
2022/04/04 04:36:48;;;;;;;14.87;12.50;;;;;;;2.39;76.77;100040.69;5063914;28;20504;-68
2022/04/04 04:39:14;;;;;;;15.50;12.03;;;;;;;2.31;76.15;100037.66;5062101;28;20437;-67
2022/04/04 04:41:41;;;;;;;16.20;13.17;;;;;;;2.44;75.75;100036.84;5068390;28;20484;-67
2022/04/04 04:44:08;;;;;;;17.33;12.30;;;;;;;2.35;75.96;100026.84;5062022;28;20496;-66
2022/04/04 04:46:36;;;;;;;23.57;13.57;;;;;;;2.35;75.71;100018.09;5059912;28;21072;-66
2022/04/04 04:49:03;;;;;;;19.63;12.40;;;;;;;2.40;75.42;100018.66;5059921;28;20441;-66
2022/04/04 04:51:30;;;;;;;15.47;11.67;;;;;;;2.41;75.19;100009.78;5061330;28;20465;-66
2022/04/04 04:53:57;;;;;;;14.27;12.20;;;;;;;2.58;74.72;100017.50;5076144;28;20965;-66
2022/04/04 04:56:25;;;;;;;16.00;12.00;;;;;;;2.40;74.88;100005.47;5067969;28;20487;-66
2022/04/04 04:58:52;;;;;;;14.70;10.37;;;;;;;2.48;74.67;100008.47;5069718;28;20467;-66
2022/04/04 05:01:20;;;;;;;15.00;12.40;;;;;;;2.49;74.38;99993.50;5061156;28;20484;-66
2022/04/04 05:03:49;;;;;;;15.90;10.87;;;;;;;2.61;73.67;99993.56;5062660;28;20503;-66
2022/04/04 05:06:16;;;;;;;16.03;12.87;;;;;;;2.58;73.87;99988.47;5061126;28;20499;-66
2022/04/04 05:08:43;;;;;;;15.10;11.20;;;;;;;2.66;73.39;99990.66;5064887;28;20457;-65
2022/04/04 05:11:09;;;;;;;20.10;10.70;;;;;;;2.66;73.50;99977.47;5060768;28;20468;-65
2022/04/04 05:13:36;;;;;;;14.47;10.17;;;;;;;2.64;73.20;99964.34;5061426;28;20448;-65
2022/04/04 05:16:07;;;;;;;11.87;9.87;;;;;;;2.59;73.59;99963.78;5061445;28;20475;-66
2022/04/04 05:18:33;;;;;;;12.73;9.87;;;;;;;2.78;72.50;99958.19;5061931;28;20452;-66
2022/04/04 05:21:03;;;;;;;11.57;8.93;;;;;;;2.78;72.36;99957.34;5061379;28;20477;-67
2022/04/04 05:23:30;;;;;;;14.30;10.93;;;;;;;2.69;72.30;99940.31;5069228;28;20456;-65
2022/04/04 05:25:57;;;;;;;13.17;9.47;;;;;;;2.79;72.11;99933.47;5062712;28;20473;-65
2022/04/04 05:28:24;;;;;;;13.80;9.70;;;;;;;2.89;71.87;99927.63;5068000;28;20457;-65
2022/04/04 05:30:50;;;;;;;13.50;9.80;;;;;;;2.73;71.72;99927.75;5060892;28;20483;-65
2022/04/04 05:33:17;;;;;;;14.37;10.10;;;;;;;2.94;71.45;99920.25;5068163;28;20444;-65
2022/04/04 05:35:44;;;;;;;14.00;9.10;;;;;;;2.97;71.13;99920.88;5060766;28;20485;-65
2022/04/04 05:38:13;;;;;;;14.00;10.10;;;;;;;2.91;70.73;99917.81;5063299;28;20449;-65
2022/04/04 05:40:40;;;;;;;16.40;10.20;;;;;;;2.96;70.47;99927.09;5059776;28;20468;-65
2022/04/04 05:43:07;;;;;;;9.77;8.67;;;;;;;2.96;70.23;99921.81;5060731;28;20487;-65
2022/04/04 05:45:39;;;;;;;13.73;9.40;;;;;;;2.81;70.32;99925.47;5058812;28;20472;-65
2022/04/04 05:48:07;;;;;;;12.80;9.53;;;;;;;2.87;69.98;99909.22;5057987;28;20452;-65
2022/04/04 05:50:34;;;;;;;12.47;9.50;;;;;;;2.89;69.79;99920.53;5057976;28;20472;-65
2022/04/04 05:53:00;;;;;;;13.80;10.50;;;;;;;2.96;69.64;99924.47;5060329;28;21008;-65
2022/04/04 05:55:31;;;;;;;14.97;9.33;;;;;;;3.10;69.40;99910.34;5059789;28;21050;-65
2022/04/04 05:57:57;;;;;;;10.33;9.20;;;;;;;3.08;68.85;99906.97;5059531;28;20513;-66
2022/04/04 06:00:25;;;;;;;15.93;8.57;;;;;;;3.08;68.62;99917.53;5059255;28;20452;-65
2022/04/04 06:02:52;;;;;;;11.00;8.37;;;;;;;3.29;68.11;99903.88;5060556;28;20952;-65
2022/04/04 06:05:19;;;;;;;10.00;7.87;;;;;;;3.29;68.01;99902.06;5059301;28;20516;-65
2022/04/04 06:07:45;;;;;;;10.57;8.43;;;;;;;3.26;67.91;99899.63;5061473;28;20453;-65
2022/04/04 06:10:13;;;;;;;13.47;9.20;;;;;;;3.28;67.45;99899.50;5049200;28;20484;-65
2022/04/04 06:12:43;;;;;;;12.10;9.23;;;;;;;3.54;67.01;99895.97;5076946;28;20530;-65
2022/04/04 06:15:10;;;;;;;13.10;9.33;;;;;;;3.63;67.02;99894.50;5072167;28;20440;-65
2022/04/04 06:17:38;;;;;;;12.67;8.03;;;;;;;3.60;67.05;99891.22;5059286;28;20437;-65
2022/04/04 06:20:05;;;;;;;11.23;8.23;;;;;;;3.45;66.70;99890.47;5059212;28;20467;-64
2022/04/04 06:22:35;;;;;;;10.57;7.07;;;;;;;3.38;66.47;99890.03;5049828;28;20489;-64
2022/04/04 06:25:02;;;;;;;9.03;7.73;;;;;;;3.55;66.38;99878.31;5040236;28;20453;-64
2022/04/04 06:27:28;;;;;;;10.73;8.23;;;;;;;3.55;65.94;99881.78;5039488;28;21011;-64
2022/04/04 06:29:57;;;;;;;12.80;7.63;;;;;;;3.53;65.99;99861.72;5040939;28;20457;-65
2022/04/04 06:32:24;;;;;;;9.77;7.17;;;;;;;3.67;65.58;99864.25;5051904;28;20499;-64
2022/04/04 06:34:51;;;;;;;10.23;7.87;;;;;;;3.77;65.28;99862.66;5049001;28;20947;-65
2022/04/04 06:37:17;;;;;;;7.33;6.57;;;;;;;3.60;65.65;99855.06;5072370;28;20480;-64
2022/04/04 06:39:44;;;;;;;8.90;7.20;;;;;;;3.53;65.28;99844.06;5079962;28;20467;-65
2022/04/04 06:42:11;;;;;;;7.73;6.73;;;;;;;3.46;65.36;99841.94;5078918;28;20505;-65
2022/04/04 06:44:38;;;;;;;12.47;7.30;;;;;;;3.62;64.58;99829.34;5066373;28;20532;-64
2022/04/04 06:47:06;;;;;;;8.83;7.30;;;;;;;3.70;64.83;99834.13;5068663;28;20480;-65
2022/04/04 06:49:33;;;;;;;9.13;6.10;;;;;;;3.78;63.86;99815.91;5078605;28;20523;-64
2022/04/04 06:51:59;;;;;;;12.63;7.07;;;;;;;3.85;63.29;99809.22;5079989;28;20460;-64
2022/04/04 06:54:27;;;;;;;9.40;7.00;;;;;;;3.89;63.73;99816.00;5080164;28;20468;-64
2022/04/04 06:56:55;;;;;;;10.40;6.80;;;;;;;3.84;63.31;99796.13;5059874;28;20861;-64
2022/04/04 06:59:22;;;;;;;8.20;6.13;;;;;;;4.11;62.97;99790.66;5052216;28;20477;-64
2022/04/04 07:01:50;;;;;;;9.07;6.80;;;;;;;4.03;62.26;99782.41;5074020;28;20534;-65
2022/04/04 07:04:20;;;;;;;7.57;6.53;;;;;;;4.15;62.14;99785.03;5051679;28;20447;-64
2022/04/04 07:06:47;;;;;;;7.90;6.23;;;;;;;4.06;62.40;99768.97;5059840;28;20473;-65
2022/04/04 07:09:14;;;;;;;9.20;6.83;;;;;;;4.26;62.02;99760.44;5059709;28;20968;-65
2022/04/04 07:11:40;;;;;;;8.10;6.67;;;;;;;4.24;61.59;99757.06;5059625;28;20472;-65
2022/04/04 07:14:09;;;;;;;10.93;7.20;;;;;;;4.32;61.27;99756.50;5066032;28;20445;-64
2022/04/04 07:16:36;;;;;;;11.40;7.70;;;;;;;4.60;60.99;99752.66;5059224;28;20473;-65
2022/04/04 07:19:02;;;;;;;10.70;7.33;;;;;;;4.48;60.35;99746.47;5059137;28;20445;-65
2022/04/04 07:21:31;;;;;;;12.30;7.83;;;;;;;4.42;60.43;99754.03;5058805;28;20506;-65
2022/04/04 07:23:57;;;;;;;9.97;6.33;;;;;;;4.64;59.79;99748.00;5068117;28;20476;-65
2022/04/04 07:26:26;;;;;;;8.07;6.33;;;;;;;4.74;58.96;99750.78;5047474;28;20473;-65
2022/04/04 07:28:53;;;;;;;9.67;7.17;;;;;;;4.98;58.44;99748.94;5040284;28;20484;-65
2022/04/04 07:31:20;;;;;;;7.53;6.60;;;;;;;5.40;58.07;99717.41;5045621;28;20492;-66
2022/04/04 07:33:47;;;;;;;7.40;5.97;;;;;;;5.02;57.32;99707.16;5059647;28;20425;-66
2022/04/04 07:36:13;;;;;;;8.77;6.83;;;;;;;5.13;57.63;99711.63;5051976;28;20477;-65
2022/04/04 07:38:41;;;;;;;9.60;6.90;;;;;;;5.22;57.47;99709.06;5043967;28;20477;-66
2022/04/04 07:41:08;;;;;;;11.70;7.43;;;;;;;5.38;56.60;99705.22;5039976;28;20481;-66
2022/04/04 07:43:35;;;;;;;11.63;6.27;;;;;;;5.00;57.04;99706.41;5045666;28;20585;-65
2022/04/04 07:46:02;;;;;;;9.87;7.77;;;;;;;5.04;57.51;99695.47;5059017;28;20503;-65
2022/04/04 07:48:29;;;;;;;9.80;7.37;;;;;;;5.22;56.79;99690.53;5059211;28;21057;-65
2022/04/04 07:50:56;;;;;;;10.07;6.93;;;;;;;5.27;56.90;99685.69;5060679;28;20484;-65
2022/04/04 07:53:23;;;;;;;11.03;6.87;;;;;;;5.11;57.42;99687.88;5064048;28;20482;-65
2022/04/04 07:55:51;;;;;;;9.97;7.23;;;;;;;5.35;57.10;99687.75;5063084;28;20472;-65
2022/04/04 07:58:18;;;;;;;9.87;6.73;;;;;;;5.17;57.52;99671.47;5063549;28;20445;-65
2022/04/04 08:00:45;;;;;;;13.20;7.47;;;;;;;5.28;57.08;99665.38;5062407;28;20495;-66
2022/04/04 08:03:11;;;;;;;8.73;6.90;;;;;;;5.31;56.38;99651.00;5062652;28;20498;-66
2022/04/04 08:05:38;;;;;;;6.20;5.60;;;;;;;5.15;57.02;99668.13;5061893;28;20472;-66
2022/04/04 08:08:05;;;;;;;8.00;6.93;;;;;;;5.22;57.33;99641.97;5063161;28;20460;-66
2022/04/04 08:10:32;;;;;;;9.10;7.00;;;;;;;5.26;57.58;99652.22;5062764;28;20464;-65
2022/04/04 08:13:00;;;;;;;10.07;7.47;;;;;;;5.39;57.38;99649.44;5062808;28;20439;-66
2022/04/04 08:15:27;;;;;;;8.83;6.60;;;;;;;5.43;57.04;99644.72;5062184;28;20487;-66
2022/04/04 08:17:54;;;;;;;9.23;6.63;;;;;;;5.34;57.25;99621.63;5062586;28;20982;-66
2022/04/04 08:20:21;;;;;;;8.50;5.83;;;;;;;5.53;56.67;99626.28;5061508;28;20463;-66
2022/04/04 08:22:48;;;;;;;10.70;7.00;;;;;;;5.44;57.51;99626.06;5062770;28;20468;-65
2022/04/04 08:25:16;;;;;;;10.03;6.97;;;;;;;5.62;57.89;99622.88;5062197;28;20484;-66
2022/04/04 08:27:44;;;;;;;9.37;5.93;;;;;;;5.12;58.91;99607.44;5062638;28;20572;-65
2022/04/04 08:30:13;;;;;;;9.93;6.77;;;;;;;5.43;58.56;99604.97;5062556;28;20444;-66
2022/04/04 08:32:41;;;;;;;11.60;6.90;;;;;;;5.21;59.10;99589.97;5061802;28;20433;-66
2022/04/04 08:35:10;;;;;;;10.50;7.30;;;;;;;5.19;59.96;99594.53;5061805;28;20452;-66
2022/04/04 08:37:38;;;;;;;9.53;7.20;;;;;;;5.02;60.89;99582.63;5062059;28;20506;-65
2022/04/04 08:40:08;;;;;;;12.30;8.00;;;;;;;5.33;61.20;99566.91;5062202;28;20475;-65
2022/04/04 08:42:34;;;;;;;10.60;7.57;;;;;;;5.33;60.71;99574.88;5061821;28;20492;-65
2022/04/04 08:45:02;;;;;;;8.33;7.50;;;;;;;5.25;60.61;99578.97;5061985;28;20480;-66
2022/04/04 08:47:32;;;;;;;9.47;7.50;;;;;;;5.37;59.89;99547.16;5061744;28;20511;-65
2022/04/04 08:49:59;;;;;;;6.20;5.50;;;;;;;5.51;59.29;99554.81;5061003;28;20464;-65
2022/04/04 08:52:27;;;;;;;7.50;6.23;;;;;;;5.73;59.06;99569.81;5062747;28;20472;-65
2022/04/04 08:54:54;;;;;;;12.03;7.10;;;;;;;5.68;58.55;99545.50;5061969;28;20448;-65
2022/04/04 08:57:22;;;;;;;8.73;6.93;;;;;;;5.79;58.98;99553.38;5061879;28;20508;-65
2022/04/04 08:59:48;;;;;;;8.50;5.60;;;;;;;5.65;58.35;99537.78;5062252;28;20437;-66
2022/04/04 09:02:15;;;;;;;9.53;7.47;;;;;;;5.48;60.21;99547.13;5079893;28;20549;-65
2022/04/04 09:04:44;;;;;;;8.60;7.20;;;;;;;5.55;60.12;99539.50;5081365;28;20509;-64
2022/04/04 09:07:11;;;;;;;17.73;7.80;;;;;;;5.45;60.96;99527.00;5070680;28;20480;-65
2022/04/04 09:09:40;;;;;;;11.03;8.13;;;;;;;5.86;60.70;99529.84;5061274;28;20448;-65
2022/04/04 09:12:08;;;;;;;10.27;8.57;;;;;;;5.64;61.37;99505.13;5062182;28;20492;-65
2022/04/04 09:14:37;;;;;;;13.73;9.17;;;;;;;5.54;62.43;99514.81;5065843;28;20451;-65
2022/04/04 09:17:06;;;;;;;12.33;8.93;;;;;;;5.50;62.93;99500.09;5081794;28;20475;-65
2022/04/04 09:19:33;;;;;;;13.60;9.00;;;;;;;5.46;63.58;99501.34;5081015;28;20478;-65
2022/04/04 09:22:06;;;;;;;11.73;8.80;;;;;;;5.39;64.22;99494.84;5081499;28;20482;-65
2022/04/04 09:24:50;;;;;;;9.87;8.83;;;;;;;5.28;65.36;99488.63;5082057;28;20467;-65
2022/04/04 09:27:21;;;;;;;11.63;8.83;;;;;;;5.57;65.64;99493.34;5073702;28;20485;-65
2022/04/04 09:29:49;;;;;;;11.33;9.83;;;;;;;5.61;65.78;99481.50;5061613;28;20441;-65
2022/04/04 09:32:16;;;;;;;10.60;9.53;;;;;;;5.57;64.93;99466.84;5061434;28;20461;-65
2022/04/04 09:35:00;;;;;;;17.47;10.17;;;;;;;5.82;64.83;99470.06;5061272;28;20453;-65
2022/04/04 09:37:30;;;;;;;13.63;8.73;;;;;;;6.07;63.80;99468.03;5061352;28;20461;-65
2022/04/04 09:40:05;;;;;;;10.87;9.03;;;;;;;5.86;64.21;99458.22;5061144;28;20459;-65
2022/04/04 09:42:32;;;;;;;10.13;9.13;;;;;;;5.94;63.68;99460.25;5079542;28;20597;-65
2022/04/04 09:45:01;;;;;;;10.40;9.30;;;;;;;5.72;64.08;99442.66;5081334;28;20480;-65
2022/04/04 09:47:50;;;;;;;12.13;10.87;;;;;;;5.75;65.00;99445.88;5080796;28;20472;-65
2022/04/04 09:50:37;;;;;;;10.47;9.37;;;;;;;5.36;67.52;99428.84;5080218;28;20460;-65
2022/04/04 09:53:06;;;;;;;12.93;11.20;;;;;;;5.16;68.86;99435.81;5048623;28;20542;-65
2022/04/04 09:55:36;;;;;;;14.87;11.77;;;;;;;5.33;70.30;99422.00;5048003;28;20526;-65
2022/04/04 09:58:06;;;;;;;17.60;12.70;;;;;;;5.22;69.88;99422.84;5060266;28;20452;-65
2022/04/04 10:00:35;;;;;;;14.80;12.93;;;;;;;5.09;70.39;99412.44;5060350;28;20475;-65
2022/04/04 10:03:04;;;;;;;14.60;13.10;;;;;;;5.17;70.63;99435.66;5061724;28;20473;-65
2022/04/04 10:05:32;;;;;;;16.93;13.53;;;;;;;5.22;71.04;99417.56;5044428;28;20497;-65
2022/04/04 10:07:59;;;;;;;16.00;13.03;;;;;;;5.17;71.44;99413.63;5040654;28;21038;-65
2022/04/04 10:10:29;;;;;;;14.63;12.33;;;;;;;5.33;71.20;99407.88;5042432;28;20454;-65
2022/04/04 10:12:57;;;;;;;16.73;13.37;;;;;;;5.21;71.98;99409.75;5051829;28;20522;-65
2022/04/04 10:15:25;;;;;;;17.23;15.30;;;;;;;5.14;72.42;99412.06;5050122;28;20453;-65
2022/04/04 10:17:53;;;;;;;17.23;15.47;;;;;;;5.21;73.27;99415.91;5056691;28;20448;-65
2022/04/04 10:20:21;;;;;;;16.27;14.53;;;;;;;4.92;73.20;99409.50;5057978;28;20453;-65
2022/04/04 10:22:50;;;;;;;27.57;15.47;;;;;;;4.97;73.40;99404.69;5059553;28;20406;-65
2022/04/04 10:25:18;;;;;;;17.33;15.40;;;;;;;4.71;75.01;99397.88;5059170;28;20531;-65
2022/04/04 10:27:47;;;;;;;17.53;15.83;;;;;;;4.76;76.28;99381.63;5058766;28;20571;-65
2022/04/04 10:30:16;;;;;;;17.97;15.60;;;;;;;4.59;76.92;99390.91;5054879;28;20581;-65
2022/04/04 10:32:53;;;;;;;16.93;15.13;;;;;;;4.64;77.19;99379.97;5079263;28;21402;-65
2022/04/04 10:35:22;;;;;;;19.40;16.27;;;;;;;4.48;76.93;99373.25;5078535;28;20460;-65
2022/04/04 10:37:49;;;;;;;22.30;16.30;;;;;;;4.81;77.72;99367.97;5078821;28;20872;-65
2022/04/04 10:40:21;;;;;;;17.70;15.87;;;;;;;4.70;77.57;99376.81;5078993;28;20518;-65
2022/04/04 10:43:02;;;;;;;17.90;16.00;;;;;;;4.61;77.65;99348.44;5077199;28;20475;-65
2022/04/04 10:45:30;;;;;;;20.13;17.20;;;;;;;4.56;78.92;99364.69;5078649;28;21068;-65
2022/04/04 10:48:04;;;;;;;19.00;16.43;;;;;;;4.49;79.07;99355.56;5079050;28;20538;-65
2022/04/04 10:50:33;;;;;;;15.47;13.87;;;;;;;4.50;78.07;99344.84;5058309;28;20552;-65
2022/04/04 10:53:02;;;;;;;18.27;15.57;;;;;;;4.69;79.08;99349.50;5059355;28;20445;-66
2022/04/04 10:55:55;;;;;;;16.77;15.10;;;;;;;4.71;78.66;99333.50;5052414;28;20531;-66
2022/04/04 10:58:25;;;;;;;16.17;14.03;;;;;;;4.67;78.16;99326.75;5058893;28;20544;-65
2022/04/04 11:01:01;;;;;;;16.03;14.37;;;;;;;4.77;79.30;99332.97;5059179;28;20473;-65
2022/04/04 11:03:32;;;;;;;14.97;13.47;;;;;;;4.53;78.17;99330.53;5060300;28;20479;-64
2022/04/04 11:08:59;;;;;;;17.53;14.77;;;;;;;4.37;80.43;99332.75;5079920;28;20904;-65
2022/04/04 11:11:44;;;;;;;14.50;13.00;;;;;;;4.28;80.91;99326.38;5079823;28;20562;-65
2022/04/04 11:14:13;;;;;;;16.33;14.70;;;;;;;4.45;81.70;99319.75;5080113;28;20424;-64
2022/04/04 11:17:38;;;;;;;19.10;14.83;;;;;;;4.45;80.96;99317.91;5079350;28;20468;-64
2022/04/04 11:20:31;;;;;;;16.07;14.37;;;;;;;4.33;80.93;99303.03;5056550;28;20459;-65
2022/04/04 11:22:58;;;;;;;20.57;14.90;;;;;;;4.40;81.63;99309.50;5069101;28;20858;-65
2022/04/04 11:25:29;;;;;;;16.37;14.30;;;;;;;4.50;81.83;99302.50;5058117;28;20444;-65
2022/04/04 11:27:57;;;;;;;14.63;13.10;;;;;;;4.33;82.11;99298.56;5059283;28;20486;-65
2022/04/04 11:30:25;;;;;;;16.50;13.30;;;;;;;4.38;82.61;99290.28;5062699;28;20459;-65
2022/04/04 11:32:54;;;;;;;15.07;13.47;;;;;;;4.31;82.97;99275.88;5068110;28;20455;-65
2022/04/04 11:35:22;;;;;;;16.20;14.20;;;;;;;4.23;83.36;99284.41;5058248;28;20523;-65
2022/04/04 11:37:50;;;;;;;14.00;12.50;;;;;;;4.10;83.59;99274.00;5059195;28;20445;-65
2022/04/04 11:40:19;;;;;;;20.27;12.83;;;;;;;3.95;84.36;99272.56;5059054;28;20453;-65
2022/04/04 11:42:50;;;;;;;17.00;13.10;;;;;;;4.14;85.02;99272.78;5054865;28;20458;-64